Time;durP1;ratioP1;P1;durP2;ratioP2;P2;SDS_P1;SDS_P2;PMS_P1;PMS_P2;Temp;Humidity;BMP_temperature;BMP_pressure;BME280_temperature;BME280_humidity;BME280_pressure;Samples;Min_cycle;Max_cycle;Signal;HPM_P1;HPM_P2
2023/06/13 00:01:04;;;;;;;5.63;3.45;;;;;;;;;;5051760;28;20148;-31
2023/06/13 00:03:31;;;;;;;4.10;3.50;;;22.20;57.00;;;;;;5051722;28;20053;-30
2023/06/13 00:06:01;;;;;;;6.78;3.35;;;21.60;63.90;;;;;;5052125;28;20577;-30
2023/06/13 00:08:31;;;;;;;4.03;3.20;;;21.80;46.70;;;;;;5051920;28;20472;-30
2023/06/13 00:10:59;;;;;;;5.05;3.63;;;;;;;;;;5052055;28;20080;-30
2023/06/13 00:13:26;;;;;;;4.55;3.30;;;22.00;64.20;;;;;;5051259;28;20060;-30
2023/06/13 00:15:53;;;;;;;6.68;3.50;;;;;;;;;;5046761;28;20559;-31
2023/06/13 00:18:20;;;;;;;4.43;3.30;;;21.90;65.00;;;;;;5032119;28;20406;-30
2023/06/13 00:20:47;;;;;;;4.95;3.53;;;;;;;;;;5031876;28;20060;-30
2023/06/13 00:23:15;;;;;;;5.30;3.22;;;21.20;56.10;;;;;;5031438;28;20411;-30
2023/06/13 00:25:43;;;;;;;5.40;3.08;;;21.60;64.70;;;;;;5031714;28;20049;-30
2023/06/13 00:28:10;;;;;;;6.47;3.42;;;;;;;;;;5032051;28;20124;-30
2023/06/13 00:30:37;;;;;;;7.03;3.60;;;20.80;63.40;;;;;;5047525;28;20049;-31
2023/06/13 00:33:04;;;;;;;6.00;3.58;;;21.90;64.20;;;;;;5051009;28;20051;-30
2023/06/13 00:35:31;;;;;;;6.35;3.47;;;21.20;58.20;;;;;;5051674;28;20049;-30
2023/06/13 00:37:58;;;;;;;5.07;3.72;;;21.20;63.70;;;;;;5051017;28;20135;-30
2023/06/13 00:40:24;;;;;;;4.72;3.83;;;22.70;64.60;;;;;;5051440;28;20057;-30
2023/06/13 00:42:53;;;;;;;6.25;3.50;;;21.20;51.30;;;;;;5033233;28;20484;-30
2023/06/13 00:45:21;;;;;;;4.95;3.25;;;22.70;60.90;;;;;;5049937;28;20433;-30
2023/06/13 00:47:51;;;;;;;7.80;3.70;;;22.00;64.50;;;;;;5051459;28;20060;-30
2023/06/13 00:50:19;;;;;;;6.07;3.65;;;21.90;65.00;;;;;;5051638;28;20048;-30
2023/06/13 00:52:46;;;;;;;8.25;3.67;;;21.10;59.00;;;;;;5050962;28;20124;-30
2023/06/13 00:55:14;;;;;;;6.72;3.95;;;;;;;;;;5051653;28;20056;-30
2023/06/13 00:57:40;;;;;;;4.60;3.75;;;20.30;63.30;;;;;;5051607;28;20049;-30
2023/06/13 01:00:10;;;;;;;6.30;4.00;;;21.40;64.00;;;;;;5051268;28;20128;-30
2023/06/13 01:02:37;;;;;;;6.47;3.60;;;22.20;53.60;;;;;;5050895;28;20051;-30
2023/06/13 01:05:05;;;;;;;5.43;3.50;;;;;;;;;;5051086;28;20132;-31
2023/06/13 01:07:33;;;;;;;5.78;3.83;;;21.20;63.90;;;;;;5051458;28;20518;-30
2023/06/13 01:10:00;;;;;;;5.45;3.67;;;;;;;;;;5051182;28;20049;-30
2023/06/13 01:12:30;;;;;;;5.53;3.78;;;22.50;57.90;;;;;;5043088;28;20045;-30
2023/06/13 01:14:59;;;;;;;4.95;3.90;;;22.30;48.70;;;;;;5031209;28;20136;-30
2023/06/13 01:17:31;;;;;;;6.20;3.70;;;21.80;64.30;;;;;;5031310;28;20051;-30
2023/06/13 01:19:58;;;;;;;5.85;3.60;;;20.70;63.80;;;;;;5042010;28;20424;-30
2023/06/13 01:22:33;;;;;;;7.15;3.60;;;21.20;64.80;;;;;;5050880;28;20095;-30
2023/06/13 01:25:04;;;;;;;5.78;3.90;;;21.60;64.50;;;;;;5054142;28;20140;-30
2023/06/13 01:27:32;;;;;;;4.47;3.72;;;22.00;64.40;;;;;;5055151;28;20056;-30
2023/06/13 01:29:59;;;;;;;5.20;3.70;;;21.60;64.60;;;;;;5054927;28;20446;-30
2023/06/13 01:32:26;;;;;;;8.23;3.50;;;22.50;64.90;;;;;;5054689;28;20049;-30
2023/06/13 01:34:53;;;;;;;6.68;4.50;;;;;;;;;;5054891;28;20137;-31
2023/06/13 01:37:19;;;;;;;5.53;3.85;;;21.30;64.30;;;;;;5053636;28;20151;-30
2023/06/13 01:39:46;;;;;;;8.50;4.10;;;21.50;64.90;;;;;;5054659;28;20048;-30
2023/06/13 01:42:13;;;;;;;6.07;4.05;;;21.50;50.20;;;;;;5054127;28;20132;-30
2023/06/13 01:44:41;;;;;;;7.45;3.90;;;21.30;64.40;;;;;;5054652;28;20049;-30
2023/06/13 01:47:13;;;;;;;6.65;3.53;;;21.30;46.30;;;;;;5037249;28;20549;-30
2023/06/13 01:49:44;;;;;;;5.90;3.60;;;20.40;63.40;;;;;;5035007;28;20049;-30
2023/06/13 01:52:15;;;;;;;6.78;4.10;;;21.50;57.30;;;;;;5034454;28;20121;-31
2023/06/13 01:54:46;;;;;;;6.57;4.03;;;21.20;64.30;;;;;;5052329;28;20133;-30
2023/06/13 01:57:13;;;;;;;6.78;3.90;;;20.40;64.10;;;;;;5054266;28;20132;-30
2023/06/13 01:59:42;;;;;;;5.43;4.22;;;20.60;63.70;;;;;;5054492;28;20504;-30
2023/06/13 02:02:08;;;;;;;5.90;4.00;;;21.10;63.80;;;;;;5054282;28;20045;-30
2023/06/13 02:04:40;;;;;;;5.28;4.00;;;21.00;46.10;;;;;;5054120;28;20565;-31
2023/06/13 02:07:08;;;;;;;6.43;3.92;;;;;;;;;;5053871;28;20053;-30
2023/06/13 02:09:35;;;;;;;5.03;3.75;;;20.40;63.50;;;;;;5039239;28;20438;-30
2023/06/13 02:12:02;;;;;;;5.35;4.00;;;;;;;;;;5033953;28;20136;-32
2023/06/13 02:14:29;;;;;;;5.30;4.30;;;20.50;64.40;;;;;;5034300;28;20132;-30
2023/06/13 02:16:59;;;;;;;7.03;3.88;;;21.10;46.10;;;;;;5034180;28;20073;-31
2023/06/13 02:19:26;;;;;;;5.30;4.05;;;;;;;;;;5035566;28;20060;-31
2023/06/13 02:21:53;;;;;;;12.07;4.30;;;20.70;52.30;;;;;;5053648;28;20045;-30
2023/06/13 02:24:20;;;;;;;9.30;4.38;;;21.50;64.10;;;;;;5053734;28;20051;-30
2023/06/13 02:26:47;;;;;;;9.48;4.50;;;21.20;64.00;;;;;;5053969;28;20060;-30
2023/06/13 02:29:13;;;;;;;6.45;4.40;;;20.70;63.80;;;;;;5053984;28;20132;-30
2023/06/13 02:31:41;;;;;;;6.43;4.28;;;21.00;46.10;;;;;;5053856;28;20056;-31
2023/06/13 02:34:09;;;;;;;10.25;4.93;;;21.00;46.10;;;;;;5053434;28;20052;-30
2023/06/13 02:36:37;;;;;;;5.70;4.18;;;21.90;64.40;;;;;;5051647;28;20124;-30
2023/06/13 02:39:03;;;;;;;5.95;4.25;;;21.20;65.00;;;;;;5053422;28;20064;-30
2023/06/13 02:41:30;;;;;;;7.22;4.13;;;21.30;51.70;;;;;;5053649;28;20136;-30
2023/06/13 02:43:57;;;;;;;7.40;4.75;;;21.10;57.10;;;;;;5053489;28;20051;-30
2023/06/13 02:46:23;;;;;;;6.45;3.97;;;20.80;64.40;;;;;;5042248;28;20132;-30
2023/06/13 02:48:50;;;;;;;8.43;4.40;;;20.10;64.00;;;;;;5033665;28;20124;-30
2023/06/13 02:51:18;;;;;;;5.68;3.85;;;20.90;46.00;;;;;;5033566;28;20077;-30
2023/06/13 02:53:45;;;;;;;6.50;4.40;;;20.60;54.60;;;;;;5041008;28;20139;-30
2023/06/13 02:56:12;;;;;;;6.25;4.43;;;19.80;63.80;;;;;;5053352;28;20128;-30
2023/06/13 02:58:39;;;;;;;7.53;4.18;;;;;;;;;;5053523;28;20060;-31
2023/06/13 03:01:06;;;;;;;6.30;4.25;;;20.80;64.70;;;;;;5053462;28;20132;-30
2023/06/13 03:03:34;;;;;;;6.35;3.97;;;20.50;63.90;;;;;;5053005;28;20049;-29
2023/06/13 03:06:01;;;;;;;9.10;4.13;;;20.50;64.30;;;;;;5036539;28;20498;-30
2023/06/13 03:08:30;;;;;;;6.80;3.90;;;21.40;64.80;;;;;;5033226;28;20046;-30
2023/06/13 03:10:57;;;;;;;7.25;4.30;;;21.10;65.20;;;;;;5046187;28;20133;-30
2023/06/13 03:13:24;;;;;;;6.05;4.28;;;;;;;;;;5052897;28;20120;-30
2023/06/13 03:15:51;;;;;;;5.80;4.15;;;20.90;64.70;;;;;;5052963;28;20124;-30
2023/06/13 03:18:18;;;;;;;8.65;4.32;;;;;;;;;;5052758;28;20053;-30
2023/06/13 03:20:47;;;;;;;7.45;4.15;;;;;;;;;;5052791;28;20248;-30
2023/06/13 03:23:14;;;;;;;6.03;4.15;;;20.70;54.50;;;;;;5052629;28;20045;-31
2023/06/13 03:25:42;;;;;;;6.93;4.43;;;20.60;65.20;;;;;;5053040;28;20071;-30
2023/06/13 03:28:09;;;;;;;5.57;4.35;;;21.00;64.60;;;;;;5052539;28;20055;-30
2023/06/13 03:30:37;;;;;;;9.35;4.47;;;;;;;;;;5052739;28;20509;-31
2023/06/13 03:33:03;;;;;;;8.45;4.80;;;20.70;57.80;;;;;;5052092;28;20123;-30
2023/06/13 03:35:30;;;;;;;7.53;4.38;;;;;;;;;;5052439;28;20133;-31
2023/06/13 03:37:57;;;;;;;6.35;4.30;;;20.90;65.30;;;;;;5052262;28;20055;-30
2023/06/13 03:40:24;;;;;;;7.75;4.95;;;;;;;;;;5052475;28;20160;-30
2023/06/13 03:42:52;;;;;;;6.53;4.90;;;20.60;46.20;;;;;;5052264;28;20052;-31
2023/06/13 03:45:19;;;;;;;9.68;4.50;;;20.80;64.00;;;;;;5049570;28;20151;-30
2023/06/13 03:47:46;;;;;;;6.68;4.60;;;;;;;;;;5032033;28;20063;-30
2023/06/13 03:50:13;;;;;;;5.40;4.30;;;21.30;64.90;;;;;;5032234;28;20587;-29
2023/06/13 03:52:40;;;;;;;8.82;4.57;;;20.40;65.30;;;;;;5032006;28;20128;-30
2023/06/13 03:55:07;;;;;;;5.85;4.25;;;20.30;64.80;;;;;;5032292;28;20061;-30
2023/06/13 03:57:34;;;;;;;7.03;4.30;;;;;;;;;;5032605;28;20045;-30
2023/06/13 04:00:04;;;;;;;8.48;4.55;;;21.40;53.60;;;;;;5033998;28;20056;-30
2023/06/13 04:02:31;;;;;;;8.05;4.32;;;21.10;55.00;;;;;;5032882;28;20053;-30
2023/06/13 04:04:58;;;;;;;12.05;4.60;;;20.00;59.80;;;;;;5032325;28;20079;-30
2023/06/13 04:07:25;;;;;;;5.85;4.28;;;20.50;65.00;;;;;;5032161;28;20045;-30
2023/06/13 04:09:51;;;;;;;7.43;4.10;;;21.30;60.10;;;;;;5032187;28;20053;-30
2023/06/13 04:12:18;;;;;;;5.97;4.45;;;20.50;65.10;;;;;;5031895;28;20128;-30
2023/06/13 04:14:45;;;;;;;6.95;4.47;;;20.10;64.40;;;;;;5031783;28;20045;-30
2023/06/13 04:17:13;;;;;;;6.15;4.25;;;20.40;46.50;;;;;;5037164;28;20044;-30
2023/06/13 04:19:40;;;;;;;7.25;4.35;;;20.60;51.30;;;;;;5051134;28;20044;-31
2023/06/13 04:22:07;;;;;;;6.72;4.22;;;20.70;65.80;;;;;;5051671;28;20068;-30
2023/06/13 04:24:33;;;;;;;7.43;4.50;;;19.90;62.50;;;;;;5051721;28;20151;-30
2023/06/13 04:27:03;;;;;;;6.53;4.30;;;;;;;;;;5051286;28;20053;-30
2023/06/13 04:29:30;;;;;;;8.05;4.70;;;20.30;48.90;;;;;;5050449;28;20119;-30
2023/06/13 04:31:57;;;;;;;9.43;4.63;;;20.20;65.80;;;;;;5031829;28;20055;-30
2023/06/13 04:34:25;;;;;;;7.68;4.57;;;20.50;65.10;;;;;;5041219;28;20116;-30
2023/06/13 04:36:55;;;;;;;8.52;4.47;;;19.90;65.70;;;;;;5051086;28;20132;-30
2023/06/13 04:39:23;;;;;;;8.85;4.22;;;;;;;;;;5051844;28;20114;-31
2023/06/13 04:41:55;;;;;;;7.97;4.53;;;;;;;;;;5051071;28;20049;-30
2023/06/13 04:44:25;;;;;;;6.50;4.13;;;20.60;66.00;;;;;;5051683;28;20060;-29
2023/06/13 04:46:57;;;;;;;8.02;4.53;;;19.40;65.00;;;;;;5042322;28;20056;-30
2023/06/13 04:49:25;;;;;;;7.13;4.07;;;20.20;65.70;;;;;;5051267;28;20138;-30
2023/06/13 04:51:54;;;;;;;6.88;3.90;;;21.20;65.40;;;;;;5050463;28;20498;-30
2023/06/13 04:54:21;;;;;;;5.53;4.22;;;20.50;46.90;;;;;;5050445;28;20047;-30
2023/06/13 04:56:49;;;;;;;5.65;4.20;;;19.40;64.30;;;;;;5048658;28;20052;-30
2023/06/13 04:59:15;;;;;;;7.00;4.18;;;20.70;65.30;;;;;;5050511;28;20049;-30
2023/06/13 05:01:43;;;;;;;5.03;4.05;;;20.40;64.60;;;;;;5055408;28;20128;-30
2023/06/13 05:04:10;;;;;;;7.10;4.20;;;20.80;64.90;;;;;;5055115;28;20049;-30
2023/06/13 05:06:38;;;;;;;4.90;3.90;;;21.30;50.80;;;;;;5055633;28;20059;-30
2023/06/13 05:09:07;;;;;;;5.15;3.88;;;;;;;;;;5055057;28;20164;-30
2023/06/13 05:11:34;;;;;;;5.18;3.88;;;19.90;65.30;;;;;;5055691;28;20439;-30
2023/06/13 05:14:01;;;;;;;6.80;4.15;;;21.20;65.60;;;;;;5055422;28;20128;-30
2023/06/13 05:16:29;;;;;;;5.65;3.80;;;21.60;65.20;;;;;;5055479;28;20053;-30
2023/06/13 05:19:00;;;;;;;4.97;3.92;;;;;;;;;;5055398;28;20412;-30
2023/06/13 05:21:27;;;;;;;4.32;3.67;;;21.00;65.30;;;;;;5055311;28;20065;-30
2023/06/13 05:23:56;;;;;;;7.10;3.92;;;20.90;46.90;;;;;;5055009;28;20072;-31
2023/06/13 05:26:22;;;;;;;5.75;3.95;;;21.70;65.20;;;;;;5055539;28;20064;-30
2023/06/13 05:28:50;;;;;;;6.30;3.90;;;;;;;;;;5055045;28;20055;-30
2023/06/13 05:31:17;;;;;;;7.38;3.60;;;20.60;64.80;;;;;;5055089;28;20083;-30
2023/06/13 05:33:44;;;;;;;6.25;4.20;;;21.30;64.80;;;;;;5054282;28;20095;-30
2023/06/13 05:36:11;;;;;;;6.43;3.83;;;20.20;65.20;;;;;;5054278;28;20477;-30
2023/06/13 05:38:38;;;;;;;8.20;3.70;;;;;;;;;;5055139;28;20060;-30
2023/06/13 05:41:06;;;;;;;5.60;3.63;;;21.20;64.70;;;;;;5054536;28;20127;-30
2023/06/13 05:43:33;;;;;;;4.72;3.33;;;;;;;;;;5054714;28;20045;-30
2023/06/13 05:46:00;;;;;;;5.22;3.63;;;;;;;;;;5046957;28;20132;-30
2023/06/13 05:48:28;;;;;;;6.65;3.40;;;;;;;;;;5047499;28;20048;-30
2023/06/13 05:50:55;;;;;;;6.30;3.83;;;21.30;65.00;;;;;;5054574;28;20464;-30
2023/06/13 05:53:22;;;;;;;5.50;3.28;;;21.30;64.90;;;;;;5049656;28;20052;-30
2023/06/13 05:55:49;;;;;;;4.50;3.40;;;;;;;;;;5034661;28;20076;-31
2023/06/13 05:58:17;;;;;;;6.85;3.67;;;21.10;64.60;;;;;;5045587;28;20055;-30
2023/06/13 06:00:45;;;;;;;6.25;3.55;;;20.60;64.50;;;;;;5054604;28;20127;-30
2023/06/13 06:03:14;;;;;;;7.68;3.75;;;21.20;65.70;;;;;;5053572;28;20045;-30
2023/06/13 06:05:43;;;;;;;4.85;3.60;;;20.30;64.70;;;;;;5053598;28;20516;-31
2023/06/13 06:08:11;;;;;;;6.35;3.50;;;20.80;64.60;;;;;;5054674;28;20131;-30
2023/06/13 06:10:39;;;;;;;3.92;3.05;;;21.30;57.80;;;;;;5054039;28;20049;-30
2023/06/13 06:13:05;;;;;;;4.18;3.17;;;21.60;60.30;;;;;;5054023;28;20124;-30
2023/06/13 06:15:34;;;;;;;7.10;3.45;;;21.10;65.10;;;;;;5054021;28;20131;-30
2023/06/13 06:18:01;;;;;;;4.45;3.15;;;20.90;50.20;;;;;;5052209;28;20049;-30
2023/06/13 06:20:28;;;;;;;5.50;3.22;;;;;;;;;;5051137;28;20051;-30
2023/06/13 06:22:55;;;;;;;6.45;3.10;;;;;;;;;;5053086;28;20049;-31
2023/06/13 06:25:22;;;;;;;6.72;3.20;;;20.70;64.30;;;;;;5053983;28;20049;-30
2023/06/13 06:27:50;;;;;;;5.38;3.28;;;21.00;46.60;;;;;;5054343;28;20103;-30
2023/06/13 06:30:16;;;;;;;5.78;3.35;;;21.80;65.10;;;;;;5053887;28;20567;-30
2023/06/13 06:32:44;;;;;;;5.53;3.20;;;21.00;65.20;;;;;;5052845;28;20049;-30
2023/06/13 06:35:11;;;;;;;4.10;2.88;;;21.10;65.20;;;;;;5048019;28;20051;-30
2023/06/13 06:37:38;;;;;;;5.38;3.20;;;20.80;64.90;;;;;;5053445;28;20052;-30
2023/06/13 06:40:06;;;;;;;4.25;2.90;;;21.30;64.40;;;;;;5053899;28;20045;-30
2023/06/13 06:42:33;;;;;;;5.05;3.28;;;20.80;51.80;;;;;;5053444;28;20122;-30
2023/06/13 06:45:00;;;;;;;3.50;2.70;;;;;;;;;;5053782;28;20052;-31
2023/06/13 06:47:27;;;;;;;3.72;2.70;;;20.30;64.60;;;;;;5034031;28;20076;-30
2023/06/13 06:49:55;;;;;;;4.70;3.00;;;21.10;65.10;;;;;;5040749;28;20477;-30
2023/06/13 06:52:22;;;;;;;5.15;2.78;;;21.50;65.30;;;;;;5052808;28;20072;-30
2023/06/13 06:54:49;;;;;;;4.32;2.65;;;;;;;;;;5053616;28;20048;-30
2023/06/13 06:57:15;;;;;;;4.85;2.88;;;20.20;63.60;;;;;;5053133;28;20077;-30
2023/06/13 06:59:42;;;;;;;4.75;3.05;;;;;;;;;;5051017;28;20053;-31
2023/06/13 07:02:09;;;;;;;4.25;3.00;;;21.20;63.90;;;;;;5043846;28;20120;-30
2023/06/13 07:04:36;;;;;;;4.20;2.70;;;21.00;64.70;;;;;;5042000;28;20099;-30
2023/06/13 07:07:04;;;;;;;4.70;3.10;;;21.10;52.20;;;;;;5043275;28;20044;-30
2023/06/13 07:09:31;;;;;;;6.35;2.90;;;21.50;64.40;;;;;;5046396;28;20056;-30
2023/06/13 07:11:58;;;;;;;5.05;2.80;;;;;;;;;;5044629;28;20052;-30
2023/06/13 07:14:25;;;;;;;5.50;2.95;;;21.40;53.90;;;;;;5052961;28;20049;-30
2023/06/13 07:16:52;;;;;;;4.53;3.00;;;21.60;63.80;;;;;;5040789;28;20525;-30
2023/06/13 07:19:19;;;;;;;5.63;2.92;;;21.20;56.20;;;;;;5033301;28;20077;-30
2023/06/13 07:21:46;;;;;;;5.78;3.45;;;;;;;;;;5032416;28;20136;-31
2023/06/13 07:24:14;;;;;;;3.95;2.90;;;21.20;45.50;;;;;;5032922;28;20100;-31
2023/06/13 07:26:41;;;;;;;3.65;2.70;;;;;;;;;;5043907;28;20129;-32
2023/06/13 07:29:08;;;;;;;5.55;3.10;;;22.00;64.30;;;;;;5049264;28;20087;-30
2023/06/13 07:31:35;;;;;;;6.75;3.35;;;20.30;62.60;;;;;;5031848;28;20115;-29
2023/06/13 07:34:02;;;;;;;5.63;3.20;;;;;;;;;;5041820;28;20490;-30
2023/06/13 07:36:28;;;;;;;4.50;2.67;;;20.40;62.70;;;;;;5051731;28;20688;-30
2023/06/13 07:38:56;;;;;;;5.03;3.08;;;;;;;;;;5051957;28;20107;-30
2023/06/13 07:41:24;;;;;;;3.65;2.80;;;21.50;63.60;;;;;;5052555;28;20060;-30
2023/06/13 07:43:50;;;;;;;4.82;2.85;;;22.50;63.10;;;;;;5052375;28;20128;-30
2023/06/13 07:46:17;;;;;;;5.05;2.80;;;21.90;62.80;;;;;;5047554;28;20045;-30
2023/06/13 07:48:44;;;;;;;3.95;2.60;;;21.60;50.40;;;;;;5042153;28;20077;-31
2023/06/13 07:51:12;;;;;;;6.03;2.85;;;21.40;62.50;;;;;;5032499;28;20136;-30
2023/06/13 07:53:40;;;;;;;3.90;2.80;;;21.80;63.40;;;;;;5049739;28;20055;-30
2023/06/13 07:56:07;;;;;;;5.13;2.67;;;22.30;62.80;;;;;;5048400;28;20042;-30
2023/06/13 07:58:35;;;;;;;4.20;2.47;;;22.00;62.80;;;;;;5032594;28;20132;-30
2023/06/13 08:01:03;;;;;;;5.72;2.72;;;;;;;;;;5032203;28;20088;-32
2023/06/13 08:03:30;;;;;;;4.68;2.55;;;21.50;63.00;;;;;;5031982;28;20570;-30
2023/06/13 08:05:57;;;;;;;4.43;2.60;;;;;;;;;;5032394;28;20132;-31
2023/06/13 08:08:24;;;;;;;7.30;2.60;;;22.20;62.40;;;;;;5032350;28;20132;-30
2023/06/13 08:10:51;;;;;;;5.30;2.83;;;;;;;;;;5044904;28;20056;-30
2023/06/13 08:13:19;;;;;;;5.93;2.90;;;;;;;;;;5051907;28;20179;-30
2023/06/13 08:15:47;;;;;;;3.72;2.15;;;21.70;62.30;;;;;;5052167;28;20409;-30
2023/06/13 08:18:14;;;;;;;3.53;2.58;;;;;;;;;;5051875;28;20080;-30
2023/06/13 08:20:41;;;;;;;3.70;2.47;;;21.40;44.90;;;;;;5051898;28;20084;-30
2023/06/13 08:23:07;;;;;;;5.35;2.67;;;21.80;60.80;;;;;;5051910;28;20107;-30
2023/06/13 08:25:34;;;;;;;5.63;2.72;;;21.70;62.10;;;;;;5051707;28;20051;-30
2023/06/13 08:28:01;;;;;;;3.95;2.67;;;21.90;63.00;;;;;;5051867;28;20103;-30
2023/06/13 08:30:28;;;;;;;3.38;2.35;;;22.10;62.60;;;;;;5051540;28;20056;-30
2023/06/13 08:32:56;;;;;;;5.78;2.58;;;22.50;62.60;;;;;;5051515;28;20055;-30
2023/06/13 08:35:22;;;;;;;5.13;2.60;;;22.70;62.70;;;;;;5051555;28;20048;-30
2023/06/13 08:37:49;;;;;;;3.90;2.40;;;;;;;;;;5051647;28;20437;-31
2023/06/13 08:40:19;;;;;;;3.53;2.53;;;21.80;62.20;;;;;;5051974;28;20387;-30
2023/06/13 08:42:46;;;;;;;4.35;2.60;;;;;;;;;;5040381;28;20049;-31
2023/06/13 08:45:12;;;;;;;4.03;2.80;;;22.90;62.80;;;;;;5032967;28;20052;-30
2023/06/13 08:47:46;;;;;;;4.88;2.92;;;21.70;62.00;;;;;;5051584;28;20231;-30
2023/06/13 08:50:18;;;;;;;3.53;2.78;;;21.80;62.10;;;;;;5051855;28;20076;-31
2023/06/13 08:52:46;;;;;;;5.70;2.72;;;21.70;62.10;;;;;;5051407;28;20059;-30
2023/06/13 08:55:14;;;;;;;4.03;2.47;;;21.50;54.50;;;;;;5051618;28;20094;-30
2023/06/13 08:57:41;;;;;;;4.63;2.72;;;21.70;61.90;;;;;;5051164;28;20409;-30
2023/06/13 09:00:10;;;;;;;4.47;2.50;;;22.10;44.90;;;;;;5050787;28;20081;-30
2023/06/13 09:02:37;;;;;;;5.18;2.50;;;22.10;62.30;;;;;;5051515;28;20053;-30
2023/06/13 09:05:04;;;;;;;3.60;2.42;;;;;;;;;;5051416;28;20091;-30
2023/06/13 09:07:32;;;;;;;4.95;2.75;;;23.00;62.60;;;;;;5051577;28;20127;-30
2023/06/13 09:09:59;;;;;;;3.97;2.65;;;21.70;62.70;;;;;;5047486;28;20128;-30
2023/06/13 09:12:26;;;;;;;3.95;2.90;;;22.20;62.90;;;;;;5038968;28;20128;-30
2023/06/13 09:14:53;;;;;;;5.45;2.92;;;21.70;56.00;;;;;;5040697;28;20129;-31
2023/06/13 09:17:20;;;;;;;4.35;3.03;;;22.60;63.00;;;;;;5051209;28;20136;-30
2023/06/13 09:19:47;;;;;;;5.10;2.97;;;;;;;;;;5051302;28;20565;-31
2023/06/13 09:22:15;;;;;;;5.80;2.72;;;22.20;61.80;;;;;;5051256;28;20049;-30
2023/06/13 09:24:43;;;;;;;3.65;2.70;;;22.20;48.10;;;;;;5051552;28;20048;-30
2023/06/13 09:27:10;;;;;;;6.53;2.70;;;;;;;;;;5051061;28;20478;-30
2023/06/13 09:29:37;;;;;;;5.20;2.70;;;22.70;49.30;;;;;;5051307;28;20408;-30
2023/06/13 09:32:05;;;;;;;4.93;2.67;;;22.80;62.20;;;;;;5050770;28;20048;-30
2023/06/13 09:34:32;;;;;;;4.82;2.72;;;23.40;62.10;;;;;;5051063;28;20044;-30
2023/06/13 09:37:00;;;;;;;7.68;2.92;;;;;;;;;;5050850;28;20087;-30
2023/06/13 09:39:28;;;;;;;3.15;2.63;;;22.70;61.70;;;;;;5039750;28;20049;-30
2023/06/13 09:41:57;;;;;;;4.80;2.88;;;22.60;61.60;;;;;;5041978;28;20060;-30
2023/06/13 09:44:24;;;;;;;4.15;2.97;;;22.60;49.10;;;;;;5040602;28;20393;-30
2023/06/13 09:46:51;;;;;;;3.97;2.88;;;22.20;62.30;;;;;;5049723;28;20061;-30
2023/06/13 09:49:18;;;;;;;4.05;3.05;;;;;;;;;;5054553;28;20063;-30
2023/06/13 09:51:45;;;;;;;4.13;2.80;;;23.20;62.70;;;;;;5054775;28;20049;-30
2023/06/13 09:54:12;;;;;;;5.35;2.70;;;;;;;;;;5054088;28;20076;-30
2023/06/13 09:56:41;;;;;;;4.13;2.58;;;23.70;62.50;;;;;;5054824;28;20139;-30
2023/06/13 09:59:09;;;;;;;4.05;2.80;;;22.70;44.30;;;;;;5054832;28;20132;-31
2023/06/13 10:01:36;;;;;;;4.78;3.10;;;22.40;47.20;;;;;;5054989;28;20049;-30
2023/06/13 10:04:05;;;;;;;3.72;2.58;;;21.90;54.70;;;;;;5054250;28;20515;-30
2023/06/13 10:06:32;;;;;;;6.30;3.17;;;;;;;;;;5054358;28;20049;-31
2023/06/13 10:08:59;;;;;;;13.45;2.90;;;;;;;;;;5054547;28;20501;-30
2023/06/13 10:11:28;;;;;;;3.97;3.05;;;22.80;44.50;;;;;;5054238;28;20478;-31
2023/06/13 10:13:56;;;;;;;4.50;2.65;;;23.80;62.20;;;;;;5031077;28;20049;-30
2023/06/13 10:16:24;;;;;;;5.07;2.95;;;22.50;50.60;;;;;;5040081;28;20123;-31
2023/06/13 10:18:53;;;;;;;6.40;3.03;;;22.70;48.60;;;;;;5048160;28;20497;-30
2023/06/13 10:21:20;;;;;;;5.20;2.80;;;;;;;;;;5053684;28;20128;-30
2023/06/13 10:23:49;;;;;;;3.50;2.72;;;;;;;;;;5051906;28;20049;-31
2023/06/13 10:26:21;;;;;;;3.80;2.92;;;22.70;59.00;;;;;;5053496;28;20131;-30
2023/06/13 10:29:26;;;;;;;4.15;2.65;;;22.70;62.00;;;;;;5053458;28;20053;-30
2023/06/13 10:32:02;;;;;;;4.63;2.75;;;22.90;44.60;;;;;;5053115;28;20049;-30
2023/06/13 10:34:47;;;;;;;5.22;2.92;;;22.90;44.60;;;;;;5049540;28;20079;-30
2023/06/13 10:37:44;;;;;;;4.38;2.90;;;22.90;44.70;;;;;;5045604;28;20131;-30
2023/06/13 10:40:36;;;;;;;5.18;2.67;;;22.90;44.80;;;;;;5041004;28;20077;-31
2023/06/13 10:43:05;;;;;;;3.53;2.65;;;22.00;53.70;;;;;;5053091;28;20075;-31
2023/06/13 10:45:31;;;;;;;3.38;2.50;;;22.90;51.30;;;;;;5049849;28;20054;-31
2023/06/13 10:48:00;;;;;;;3.70;2.45;;;23.10;62.90;;;;;;5034040;28;20059;-30
2023/06/13 10:50:26;;;;;;;3.88;2.53;;;22.50;48.90;;;;;;5033833;28;20056;-30
2023/06/13 10:52:55;;;;;;;7.57;2.65;;;;;;;;;;5033947;28;20132;-30
2023/06/13 10:55:26;;;;;;;3.80;3.00;;;22.70;50.70;;;;;;5033840;28;20517;-30
2023/06/13 10:57:53;;;;;;;4.85;2.90;;;23.30;61.70;;;;;;5045946;28;20049;-30
2023/06/13 11:00:27;;;;;;;4.03;3.10;;;23.10;44.50;;;;;;5053194;28;20044;-31
2023/06/13 11:03:00;;;;;;;6.97;2.75;;;23.70;62.20;;;;;;5050724;28;20055;-30
2023/06/13 11:05:27;;;;;;;3.58;2.90;;;22.70;61.50;;;;;;5053156;28;20131;-30
2023/06/13 11:07:55;;;;;;;3.85;2.97;;;;;;;;;;5053916;28;20454;-31
2023/06/13 11:10:22;;;;;;;3.40;2.70;;;23.60;62.30;;;;;;5053476;28;20064;-30
2023/06/13 11:12:49;;;;;;;3.60;2.70;;;23.50;62.70;;;;;;5053156;28;20140;-30
2023/06/13 11:15:22;;;;;;;4.60;2.88;;;23.20;44.70;;;;;;5053570;28;20446;-32
2023/06/13 11:18:22;;;;;;;4.18;2.92;;;22.90;61.40;;;;;;5052954;28;20059;-30
2023/06/13 11:20:49;;;;;;;3.80;3.05;;;23.30;62.50;;;;;;5053098;28;20128;-30
2023/06/13 11:23:17;;;;;;;4.53;2.95;;;23.20;44.60;;;;;;5052861;28;20497;-31
2023/06/13 11:25:45;;;;;;;3.72;2.50;;;24.30;50.60;;;;;;5052914;28;20102;-30
2023/06/13 11:28:13;;;;;;;4.18;2.60;;;23.10;61.90;;;;;;5052365;28;20139;-30
2023/06/13 11:30:42;;;;;;;3.38;2.70;;;23.00;61.60;;;;;;5049347;28;20503;-30
2023/06/13 11:33:10;;;;;;;5.38;2.97;;;23.30;44.70;;;;;;5035034;28;20051;-30
2023/06/13 11:35:38;;;;;;;3.90;2.78;;;23.30;48.30;;;;;;5053053;28;20048;-30
2023/06/13 11:38:08;;;;;;;4.93;2.88;;;22.90;61.50;;;;;;5052455;28;20059;-30
2023/06/13 11:40:39;;;;;;;3.78;2.80;;;23.40;44.90;;;;;;5052351;28;20056;-30
2023/06/13 11:43:06;;;;;;;5.15;2.85;;;23.60;62.00;;;;;;5052465;28;20053;-30
2023/06/13 11:45:33;;;;;;;5.10;2.63;;;22.80;62.50;;;;;;5048674;28;20049;-30
2023/06/13 11:48:00;;;;;;;5.55;2.70;;;24.40;62.80;;;;;;5032934;28;20081;-30
2023/06/13 11:50:28;;;;;;;3.88;2.60;;;23.30;62.40;;;;;;5036104;28;20120;-30
2023/06/13 11:53:04;;;;;;;4.82;2.70;;;23.40;44.90;;;;;;5052113;28;20048;-31
2023/06/13 11:55:31;;;;;;;5.35;2.90;;;22.90;62.40;;;;;;5052747;28;20132;-30
2023/06/13 11:57:58;;;;;;;3.33;2.50;;;23.60;50.50;;;;;;5052960;28;20148;-30
2023/06/13 12:00:26;;;;;;;3.88;2.72;;;22.90;61.90;;;;;;5052551;28;20052;-30
2023/06/13 12:02:53;;;;;;;3.95;2.70;;;23.60;61.80;;;;;;5052306;28;20127;-30
2023/06/13 12:05:19;;;;;;;4.95;2.70;;;23.80;62.60;;;;;;5052110;28;20127;-30
2023/06/13 12:07:49;;;;;;;5.22;2.75;;;23.40;56.50;;;;;;5051764;28;20136;-30
2023/06/13 12:10:16;;;;;;;4.30;2.60;;;23.40;57.80;;;;;;5044885;28;20068;-30
2023/06/13 12:12:42;;;;;;;4.25;2.63;;;23.70;55.30;;;;;;5050877;28;20056;-30
2023/06/13 12:15:13;;;;;;;6.13;2.63;;;23.80;61.80;;;;;;5052409;28;20131;-30
2023/06/13 12:17:55;;;;;;;3.20;2.70;;;23.20;54.30;;;;;;5052223;28;20055;-30
2023/06/13 12:20:24;;;;;;;6.40;2.70;;;;;;;;;;5050821;28;20072;-31
2023/06/13 12:22:57;;;;;;;5.07;2.65;;;24.10;61.50;;;;;;5052009;28;20140;-29
2023/06/13 12:25:25;;;;;;;5.10;3.00;;;23.30;61.60;;;;;;5052053;28;20056;-30
2023/06/13 12:27:52;;;;;;;2.80;2.45;;;24.00;61.40;;;;;;5041126;28;20059;-30
2023/06/13 12:30:19;;;;;;;4.70;2.70;;;23.60;59.90;;;;;;5031252;28;20167;-30
2023/06/13 12:32:48;;;;;;;4.20;2.80;;;23.40;61.10;;;;;;5031846;28;20132;-32
2023/06/13 12:35:19;;;;;;;3.38;2.35;;;23.60;44.30;;;;;;5040934;28;20075;-31
2023/06/13 12:37:48;;;;;;;3.30;2.50;;;23.70;60.70;;;;;;5044192;28;20128;-32
2023/06/13 12:40:16;;;;;;;4.00;2.50;;;24.70;61.60;;;;;;5051555;28;20544;-32
2023/06/13 12:42:43;;;;;;;4.72;2.80;;;24.00;54.00;;;;;;5051689;28;20049;-32
2023/06/13 12:45:11;;;;;;;6.13;2.70;;;23.40;60.90;;;;;;5050249;28;20456;-32
2023/06/13 12:47:37;;;;;;;3.67;2.72;;;24.10;61.10;;;;;;5032290;28;20056;-32
2023/06/13 12:50:08;;;;;;;5.28;2.50;;;23.50;61.40;;;;;;5051104;28;20131;-32
2023/06/13 12:52:35;;;;;;;4.88;2.92;;;23.70;60.70;;;;;;5051296;28;20053;-32
2023/06/13 12:55:02;;;;;;;3.60;2.80;;;23.50;60.20;;;;;;5043700;28;20065;-32
2023/06/13 12:57:31;;;;;;;6.13;2.75;;;23.10;60.00;;;;;;5031935;28;20136;-32
2023/06/13 12:59:58;;;;;;;4.72;2.72;;;;;;;;;;5030652;28;20046;-31
2023/06/13 13:02:26;;;;;;;6.35;2.50;;;23.70;60.40;;;;;;5033716;28;20084;-31
2023/06/13 13:04:59;;;;;;;4.03;2.80;;;23.70;60.00;;;;;;5051733;28;20136;-32
2023/06/13 13:07:27;;;;;;;4.15;2.80;;;23.80;55.00;;;;;;5051594;28;20132;-32
2023/06/13 13:09:55;;;;;;;4.45;2.70;;;;;;;;;;5051746;28;20045;-32
2023/06/13 13:12:22;;;;;;;4.18;2.83;;;;;;;;;;5051260;28;20136;-31